Hlavní strana
METAR-TAF:

METAR-TAF

Letiště :

Iaşi, Rumunsko

zeměpisná šířka: 47-10N, zeměpisná délka: 027-38E, výška: 102 m

Aktuální stav počasí

Zpráva byla vytvořena před 33 minutami, v 12:00 UTC
Jižní vítr 7 kt, proměnlivý mezi jihovýchodním a západojihozápadním
Teplota 24°C
Vlhkost vzduchu 29%
Tlak 1005 hPa
Viditelnost 10 km a více
Žádná oblačnost pod 1500 m, nevyskytují se cumulonimby.

METAR: LRIA 041200Z 19007KT 130V250 CAVOK 24/05 Q1005

Čas: 15:33 (12:33 UTC)

Předpověď počasí

Zpráva byla vytvořena před 1 hodinou a 33 minutami, v 11:00 UTC
Předpověď platná od 04 v 12 UTC do 04 v 21 UTC
Jižní vítr 8 kt
Viditelnost 10 km a více
Žádná oblačnost pod 1500 m, nevyskytují se cumulonimby.
Pravděpodobnost 40% :
Dočasný
od 04 v 18 UTC do 04 v 21 UTC
Viditelnost: 5000 m
Polojasno ve výšce 4000 ft, Cumulonimbus.
slabé dešťové přeháňky

TAF: LRIA 041100Z 0412/0421 18008KT CAVOK PROB40 TEMPO 0418/0421 5000 -SHRA SCT040CB

Stav a předpovědi počasí z více než 4 000 letišť (zprávy METAR a TAF).

Červené a žluté tečky na mapě představují dostupné meteorologické stanice.

Když kurzor umístíte na tečku, zobrazí se název stanice.

Pak kliknutím zobrazíte stav a předpověď počasí.

Chcete-li změnit mapu, kliknutím na zelené tlačítko se znaménkem +mapu přiblížíte, kliknutím na zelené tlačítko se znaménkem – mapu oddálíte a kliknutím na zelené šipky přejdete na sousední mapy.


METAR-TAF: